Time;durP1;ratioP1;P1;durP2;ratioP2;P2;SDS_P1;SDS_P2;PMS_P1;PMS_P2;Temp;Humidity;BMP_temperature;BMP_pressure;BME280_temperature;BME280_humidity;BME280_pressure;Samples;Min_cycle;Max_cycle;Signal;HPM_P1;HPM_P2
2023/01/07 00:01:11;;;;;;;7.70;3.25;;;;;;;12.33;100.00;101359.63;5057109;28;20592;-73
2023/01/07 00:03:38;;;;;;;4.18;2.17;;;;;;;12.29;100.00;101362.38;5057464;28;20173;-74
2023/01/07 00:06:11;;;;;;;5.97;2.45;;;;;;;12.25;100.00;101358.03;5065317;28;20826;-73
2023/01/07 00:08:40;;;;;;;6.40;2.22;;;;;;;12.24;100.00;101362.78;5058737;28;20059;-73
2023/01/07 00:11:09;;;;;;;6.43;2.97;;;;;;;12.40;100.00;101360.44;5056857;28;20062;-73
2023/01/07 00:13:36;;;;;;;4.38;2.05;;;;;;;12.34;100.00;101362.00;5051242;28;20044;-73
2023/01/07 00:16:06;;;;;;;7.05;3.17;;;;;;;12.45;100.00;101359.22;5056611;28;20048;-73
2023/01/07 00:18:33;;;;;;;3.67;2.15;;;;;;;12.42;100.00;101363.59;5058151;28;20052;-73
2023/01/07 00:21:02;;;;;;;3.08;1.75;;;;;;;12.38;100.00;101356.44;5052481;28;20052;-73
2023/01/07 00:23:29;;;;;;;3.35;1.00;;;;;;;12.38;100.00;101354.47;5051180;28;20051;-73
2023/01/07 00:26:04;;;;;;;6.60;2.28;;;;;;;12.41;100.00;101362.00;5056025;28;20055;-74
2023/01/07 00:28:36;;;;;;;0.50;0.50;;;;;;;12.37;100.00;101354.84;5055384;28;20059;-72
2023/01/07 00:31:10;;;;;;;7.22;1.95;;;;;;;12.32;100.00;101353.25;5056594;28;20099;-73
2023/01/07 00:33:50;;;;;;;4.63;1.08;;;;;;;12.39;100.00;101356.03;5050854;28;20098;-73
2023/01/07 00:36:18;;;;;;;2.53;1.45;;;;;;;12.49;100.00;101348.94;5063002;28;20050;-73
2023/01/07 00:38:45;;;;;;;6.38;2.03;;;;;;;12.48;100.00;101350.09;5053312;28;20048;-73
2023/01/07 00:41:12;;;;;;;5.57;1.63;;;;;;;12.41;100.00;101350.91;5049628;28;20048;-74
2023/01/07 00:43:38;;;;;;;3.10;1.70;;;;;;;12.42;100.00;101340.63;5049053;28;20048;-73
2023/01/07 00:46:05;;;;;;;0.63;0.60;;;;;;;12.40;100.00;101354.06;5052684;28;20052;-74
2023/01/07 00:48:31;;;;;;;2.85;1.65;;;;;;;12.46;100.00;101347.72;5057664;28;20048;-74
2023/01/07 00:50:58;;;;;;;5.45;1.88;;;;;;;12.52;100.00;101345.38;5061895;28;20753;-75
2023/01/07 00:53:24;;;;;;;5.55;2.25;;;;;;;12.38;100.00;101346.16;5051059;28;20044;-73
2023/01/07 00:55:51;;;;;;;3.35;1.58;;;;;;;12.45;100.00;101337.81;5053510;28;20057;-73
2023/01/07 00:58:20;;;;;;;4.90;2.08;;;;;;;12.49;100.00;101335.06;5051874;28;20052;-74
2023/01/07 01:00:47;;;;;;;6.95;1.95;;;;;;;12.49;100.00;101332.28;5058974;28;20103;-74
2023/01/07 01:03:14;;;;;;;1.55;0.98;;;;;;;12.43;100.00;101328.31;5058192;28;20397;-74
2023/01/07 01:05:41;;;;;;;5.63;2.03;;;;;;;12.50;100.00;101331.09;5057234;28;20063;-74
2023/01/07 01:08:10;;;;;;;1.92;1.13;;;;;;;12.43;100.00;101325.53;5057967;28;20055;-74
2023/01/07 01:10:37;;;;;;;3.55;1.35;;;;;;;12.51;100.00;101324.34;5057134;28;20052;-73
2023/01/07 01:13:03;;;;;;;4.22;1.67;;;;;;;12.50;100.00;101320.00;5054341;28;20052;-72
2023/01/07 01:15:30;;;;;;;1.92;0.90;;;;;;;12.44;100.00;101322.38;5052821;28;20048;-72
2023/01/07 01:17:56;;;;;;;2.83;1.55;;;;;;;12.50;100.00;101323.56;5057406;28;20048;-73
2023/01/07 01:20:23;;;;;;;4.65;1.75;;;;;;;12.57;100.00;101320.78;5061121;28;20894;-72
2023/01/07 01:22:49;;;;;;;1.20;0.82;;;;;;;12.51;100.00;101321.56;5054425;28;20570;-75
2023/01/07 01:25:16;;;;;;;1.15;1.05;;;;;;;12.59;100.00;101318.41;5049536;28;20056;-74
2023/01/07 01:27:42;;;;;;;0.90;0.90;;;;;;;12.55;100.00;101323.16;5054311;28;20048;-74
2023/01/07 01:30:09;;;;;;;2.78;1.20;;;;;;;12.60;100.00;101314.44;5054023;28;20469;-74
2023/01/07 01:32:36;;;;;;;2.38;1.00;;;;;;;12.59;100.00;101323.19;5046885;28;20040;-73
2023/01/07 01:35:03;;;;;;;1.55;1.20;;;;;;;12.59;100.00;101323.94;5048153;28;20051;-75
2023/01/07 01:37:29;;;;;;;3.20;1.35;;;;;;;12.66;100.00;101317.63;5053313;28;20863;-75
2023/01/07 01:39:56;;;;;;;5.68;1.35;;;;;;;12.73;100.00;101317.63;5061929;28;20959;-76
2023/01/07 01:42:24;;;;;;;2.20;1.35;;;;;;;12.72;100.00;101316.00;5055571;28;20751;-73
2023/01/07 01:44:56;;;;;;;1.65;0.77;;;;;;;12.68;100.00;101321.59;5047104;28;20189;-73
2023/01/07 01:47:40;;;;;;;1.20;0.68;;;;;;;12.73;100.00;101323.16;5045501;28;20049;-73
2023/01/07 01:50:23;;;;;;;1.70;1.25;;;;;;;12.72;100.00;101316.00;5047579;28;20601;-74
2023/01/07 01:53:06;;;;;;;2.70;1.35;;;;;;;12.72;100.00;101305.72;5052459;28;20052;-73
2023/01/07 01:55:42;;;;;;;2.63;1.13;;;;;;;12.69;100.00;101311.28;5048296;28;20810;-73
2023/01/07 01:58:16;;;;;;;1.52;1.10;;;;;;;12.70;100.00;101302.53;5051672;28;20510;-73
2023/01/07 02:00:43;;;;;;;2.22;1.25;;;;;;;12.62;100.00;101311.25;5049492;28;20059;-73
2023/01/07 02:03:15;;;;;;;1.33;0.57;;;;;;;12.66;100.00;101304.50;5051155;28;20202;-72
2023/01/07 02:05:43;;;;;;;1.70;0.98;;;;;;;12.63;100.00;101308.09;5052174;28;20064;-74
2023/01/07 02:08:09;;;;;;;3.05;1.80;;;;;;;12.67;100.00;101297.78;5051268;28;20048;-74
2023/01/07 02:10:37;;;;;;;5.10;1.90;;;;;;;12.67;100.00;101300.56;5046428;28;20052;-75
2023/01/07 02:13:19;;;;;;;2.88;1.80;;;;;;;12.64;100.00;101295.00;5048928;28;20049;-75
2023/01/07 02:16:02;;;;;;;2.47;0.90;;;;;;;12.59;100.00;101298.97;5057547;28;20892;-73
2023/01/07 02:18:56;;;;;;;3.58;1.83;;;;;;;12.58;100.00;101288.25;5046071;28;20809;-74
2023/01/07 02:21:48;;;;;;;2.38;1.33;;;;;;;12.57;100.00;101293.03;5052217;28;20048;-74
2023/01/07 02:24:52;;;;;;;2.72;1.58;;;;;;;12.59;100.00;101289.88;5049058;28;20060;-75
2023/01/07 02:27:59;;;;;;;2.90;1.00;;;;;;;12.50;100.00;101289.47;5051135;28;20058;-74
2023/01/07 02:30:40;;;;;;;;;;;;;;;12.68;100.00;101293.00;5055677;28;20057;-72
2023/01/07 02:33:28;;;;;;;2.97;1.58;;;;;;;12.63;100.00;101290.66;5054160;28;19931;-74
2023/01/07 02:36:10;;;;;;;4.47;1.70;;;;;;;12.63;100.00;101285.88;5050848;28;20774;-75
2023/01/07 02:39:14;;;;;;;2.42;0.93;;;;;;;12.59;100.00;101285.09;5059090;28;20052;-73
2023/01/07 02:41:48;;;;;;;3.15;1.60;;;;;;;12.55;100.00;101295.41;5052358;28;20807;-73
2023/01/07 02:44:27;;;;;;;4.78;1.90;;;;;;;12.55;100.00;101291.81;5053329;28;20857;-74
2023/01/07 02:46:57;;;;;;;2.58;1.25;;;;;;;12.58;100.00;101288.25;5050514;28;20044;-73
2023/01/07 02:49:24;;;;;;;4.35;2.05;;;;;;;12.61;100.00;101293.03;5046485;28;20063;-75
2023/01/07 02:51:50;;;;;;;2.58;1.60;;;;;;;12.57;100.00;101283.91;5051652;28;20044;-75
2023/01/07 02:54:21;;;;;;;4.82;2.20;;;;;;;12.58;100.00;101280.72;5052274;28;20055;-75
2023/01/07 02:57:09;;;;;;;3.67;1.27;;;;;;;12.53;100.00;101277.56;5048593;28;20052;-75
2023/01/07 02:59:58;;;;;;;3.33;1.58;;;;;;;12.54;100.00;101274.41;5051583;28;20067;-73
2023/01/07 03:02:58;;;;;;;2.92;1.63;;;;;;;12.54;100.00;101274.41;5047870;28;20077;-74
2023/01/07 03:05:46;;;;;;;2.20;1.40;;;;;;;12.49;100.00;101260.91;5052502;28;20051;-74
2023/01/07 03:08:45;;;;;;;2.95;1.38;;;;;;;12.39;100.00;101264.47;5061108;28;20047;-73
2023/01/07 03:11:12;;;;;;;3.17;1.63;;;;;;;12.33;100.00;101254.16;5074440;28;20044;-73
2023/01/07 03:14:08;;;;;;;3.20;1.40;;;;;;;12.33;100.00;101262.50;5074245;28;20054;-73
2023/01/07 03:16:51;;;;;;;3.75;1.67;;;;;;;12.30;100.00;101260.50;5069411;28;20487;-72
2023/01/07 03:19:24;;;;;;;4.40;1.35;;;;;;;12.24;100.00;101250.97;5067218;28;20155;-72
2023/01/07 03:21:53;;;;;;;2.22;1.50;;;;;;;12.13;100.00;101250.19;5067915;28;20049;-73
2023/01/07 03:24:23;;;;;;;3.00;1.70;;;;;;;12.10;100.00;101246.22;5067671;28;20045;-74
2023/01/07 03:26:54;;;;;;;3.95;1.38;;;;;;;12.07;100.00;101255.34;5068295;28;20049;-73
2023/01/07 03:29:22;;;;;;;2.60;1.40;;;;;;;12.08;100.00;101253.38;5071728;28;20052;-75
2023/01/07 03:32:11;;;;;;;3.15;1.60;;;;;;;12.02;100.00;101250.16;5081936;28;20512;-75
2023/01/07 03:34:38;;;;;;;3.05;1.35;;;;;;;12.02;100.00;101247.38;5066693;28;20422;-72
2023/01/07 03:37:11;;;;;;;3.72;1.73;;;;;;;12.03;100.00;101254.53;5067336;28;20056;-74
2023/01/07 03:39:41;;;;;;;5.43;1.52;;;;;;;12.03;100.00;101254.53;5068223;28;20521;-72
2023/01/07 03:44:54;;;;;;;3.15;1.67;;;;;;;11.96;100.00;101248.19;5069492;28;20040;-73
2023/01/07 03:47:21;;;;;;;3.40;1.80;;;;;;;11.90;100.00;101246.97;5066651;28;20055;-73
2023/01/07 03:49:47;;;;;;;6.18;1.77;;;;;;;11.88;100.00;101238.28;5067123;28;20055;-73
2023/01/07 03:52:14;;;;;;;2.92;1.58;;;;;;;11.85;100.00;101234.28;5067606;28;20044;-74
2023/01/07 03:54:40;;;;;;;0.90;0.70;;;;;;;11.78;100.00;101233.50;5070062;28;20048;-72
2023/01/07 03:57:07;;;;;;;3.47;1.52;;;;;;;11.83;100.00;101236.69;5075893;28;20050;-73
2023/01/07 03:59:33;;;;;;;5.53;1.55;;;;;;;11.76;100.00;101231.13;5073556;28;20049;-75
2023/01/07 04:02:00;;;;;;;4.68;1.30;;;;;;;11.78;100.00;101222.41;5070860;28;20050;-73
2023/01/07 04:04:27;;;;;;;3.47;1.33;;;;;;;11.77;100.00;101218.03;5074185;28;20619;-73
2023/01/07 04:06:54;;;;;;;2.92;1.48;;;;;;;11.75;100.00;101212.88;5071533;28;20143;-73
2023/01/07 04:09:20;;;;;;;3.45;1.60;;;;;;;11.72;100.00;101215.66;5072146;28;20082;-73
2023/01/07 04:11:47;;;;;;;3.53;1.60;;;;;;;11.76;100.00;101205.38;5073710;28;20561;-73
2023/01/07 04:14:14;;;;;;;3.25;1.20;;;;;;;11.68;100.00;101203.78;5069711;28;20055;-73
2023/01/07 04:16:40;;;;;;;2.00;1.35;;;;;;;11.69;100.00;101189.53;5070117;28;20048;-73
2023/01/07 04:19:07;;;;;;;0.82;0.52;;;;;;;11.61;100.00;101195.41;5069745;28;20059;-75
2023/01/07 04:21:34;;;;;;;3.38;1.20;;;;;;;11.61;100.00;101199.00;5078297;28;20063;-74
2023/01/07 04:24:00;;;;;;;3.85;1.80;;;;;;;11.63;100.00;101193.06;5069908;28;20487;-72
2023/01/07 04:26:27;;;;;;;1.90;1.13;;;;;;;11.60;100.00;101196.59;5071741;28;20055;-74
2023/01/07 04:28:53;;;;;;;1.48;1.20;;;;;;;11.62;100.00;101185.94;5072652;28;20052;-73
2023/01/07 04:31:20;;;;;;;1.60;1.30;;;;;;;11.54;100.00;101178.78;5080966;28;20048;-73
2023/01/07 04:33:46;;;;;;;3.47;1.40;;;;;;;11.57;100.00;101183.50;5072585;28;20045;-73
2023/01/07 04:36:13;;;;;;;1.85;1.17;;;;;;;11.51;100.00;101191.41;5076278;28;20052;-73
2023/01/07 04:38:39;;;;;;;0.63;0.52;;;;;;;11.46;100.00;101189.03;5069668;28;20052;-74
2023/01/07 04:41:06;;;;;;;0.70;0.65;;;;;;;11.51;100.00;101185.88;5069808;28;20555;-74
2023/01/07 04:43:33;;;;;;;2.72;1.50;;;;;;;11.60;100.00;101191.03;5069346;28;20041;-73
2023/01/07 04:45:59;;;;;;;3.67;1.30;;;;;;;11.54;100.00;101189.88;5076553;28;20040;-73
2023/01/07 04:48:26;;;;;;;3.88;1.73;;;;;;;11.62;100.00;101170.13;5068070;28;20049;-72
2023/01/07 04:50:52;;;;;;;4.68;1.70;;;;;;;11.60;100.00;101177.97;5068603;28;20052;-73
2023/01/07 04:53:19;;;;;;;1.95;1.20;;;;;;;11.60;100.00;101177.19;5069234;28;20045;-73
2023/01/07 04:55:45;;;;;;;4.78;1.95;;;;;;;11.64;100.00;101167.72;5077973;28;20049;-74
2023/01/07 04:58:12;;;;;;;1.80;1.20;;;;;;;11.65;100.00;101162.97;5069463;28;20044;-74
2023/01/07 05:00:38;;;;;;;1.98;1.30;;;;;;;11.70;100.00;101163.38;5065355;28;20053;-73
2023/01/07 05:03:05;;;;;;;0.45;0.45;;;;;;;11.63;100.00;101170.88;5067846;28;20053;-73
2023/01/07 05:05:31;;;;;;;4.13;1.45;;;;;;;11.67;100.00;101163.38;5080910;28;20040;-74
2023/01/07 05:07:58;;;;;;;2.05;1.25;;;;;;;11.72;100.00;101154.69;5070587;28;20162;-73
2023/01/07 05:10:24;;;;;;;1.33;1.13;;;;;;;11.67;100.00;101153.06;5069113;28;20044;-73
2023/01/07 05:12:51;;;;;;;4.43;1.30;;;;;;;11.72;100.00;101152.72;5068452;28;20048;-73
2023/01/07 05:15:17;;;;;;;0.70;0.60;;;;;;;11.63;100.00;101157.84;5069041;28;20040;-75
2023/01/07 05:17:44;;;;;;;4.07;1.70;;;;;;;11.78;100.00;101145.56;5069610;28;20057;-75
2023/01/07 05:20:10;;;;;;;1.92;1.15;;;;;;;11.73;100.00;101147.94;5078321;28;20117;-73
2023/01/07 05:22:37;;;;;;;3.58;1.48;;;;;;;11.74;100.00;101139.22;5072352;28;20064;-75
2023/01/07 05:25:04;;;;;;;1.95;1.23;;;;;;;11.77;100.00;101134.88;5076482;28;20048;-72
2023/01/07 05:27:30;;;;;;;3.35;1.23;;;;;;;11.68;100.00;101134.47;5067132;28;20055;-72
2023/01/07 05:29:57;;;;;;;2.53;1.35;;;;;;;11.79;100.00;101138.84;5070650;28;20052;-73
2023/01/07 05:32:23;;;;;;;2.08;1.50;;;;;;;11.77;100.00;101129.31;5073432;28;20052;-73
2023/01/07 05:34:50;;;;;;;2.28;1.50;;;;;;;11.75;100.00;101131.72;5074057;28;20079;-75
2023/01/07 05:37:16;;;;;;;4.70;1.50;;;;;;;11.76;100.00;101127.75;5068570;28;20447;-75
2023/01/07 05:39:43;;;;;;;3.78;1.73;;;;;;;11.76;100.00;101127.75;5068158;28;20048;-74
2023/01/07 05:42:09;;;;;;;0.93;0.80;;;;;;;11.73;100.00;101122.97;5076083;28;20422;-72
2023/01/07 05:44:36;;;;;;;3.17;2.17;;;;;;;11.73;100.00;101122.97;5076569;28;20049;-74
2023/01/07 05:47:02;;;;;;;3.00;1.77;;;;;;;11.79;100.00;101124.19;5068157;28;20056;-72
2023/01/07 05:49:29;;;;;;;3.22;1.77;;;;;;;11.77;100.00;101121.00;5071328;28;20078;-73
2023/01/07 05:51:55;;;;;;;1.90;1.48;;;;;;;11.73;100.00;101120.22;5068415;28;20513;-73
2023/01/07 05:54:22;;;;;;;3.20;1.38;;;;;;;11.66;100.00;101121.00;5068468;28;20131;-73
2023/01/07 05:56:48;;;;;;;5.22;1.80;;;;;;;11.71;100.00;101122.59;5068471;28;20048;-73
2023/01/07 05:59:15;;;;;;;3.10;1.25;;;;;;;11.70;100.00;101118.22;5066762;28;20041;-74
2023/01/07 06:01:41;;;;;;;1.40;1.20;;;;;;;11.61;100.00;101121.38;5069383;28;20043;-74
2023/01/07 06:04:08;;;;;;;3.15;1.05;;;;;;;11.59;100.00;101122.94;5075297;28;20055;-74
2023/01/07 06:06:34;;;;;;;3.97;2.00;;;;;;;11.66;100.00;101114.66;5067712;28;20044;-74
2023/01/07 06:09:01;;;;;;;4.15;1.88;;;;;;;11.73;100.00;101117.44;5067899;28;20106;-74
2023/01/07 06:11:27;;;;;;;0.80;0.80;;;;;;;11.65;100.00;101110.31;5070737;28;20048;-74
2023/01/07 06:13:54;;;;;;;2.55;1.45;;;;;;;11.68;100.00;101106.75;5068670;28;20055;-74
2023/01/07 06:16:20;;;;;;;3.50;1.40;;;;;;;11.70;100.00;101110.72;5068935;28;20045;-74
2023/01/07 06:18:47;;;;;;;5.57;2.10;;;;;;;11.70;100.00;101107.13;5069049;28;20534;-75
2023/01/07 06:21:15;;;;;;;2.45;1.73;;;;;;;11.64;100.00;101103.97;5066945;28;20067;-74
2023/01/07 06:23:42;;;;;;;3.20;2.00;;;;;;;11.72;100.00;101107.56;5078038;28;20515;-73
2023/01/07 06:26:08;;;;;;;3.10;1.60;;;;;;;11.65;100.00;101110.31;5075536;28;20135;-73
2023/01/07 06:28:35;;;;;;;3.13;1.80;;;;;;;11.65;100.00;101102.78;5067421;28;20048;-73
2023/01/07 06:31:02;;;;;;;6.07;1.73;;;;;;;11.52;100.00;101095.22;5066898;28;20045;-73
2023/01/07 06:33:28;;;;;;;2.38;1.70;;;;;;;11.56;100.00;101094.03;5067074;28;20113;-76
2023/01/07 06:35:56;;;;;;;3.67;1.77;;;;;;;11.50;100.00;101089.28;5070718;28;20044;-72
2023/01/07 06:38:22;;;;;;;3.60;1.65;;;;;;;11.45;100.00;101095.22;5074596;28;20048;-73
2023/01/07 06:40:49;;;;;;;1.45;0.95;;;;;;;11.42;100.00;101096.00;5068360;28;20059;-74
2023/01/07 06:43:15;;;;;;;5.65;1.90;;;;;;;11.45;100.00;101089.69;5068188;28;20127;-74
2023/01/07 06:45:42;;;;;;;5.35;2.13;;;;;;;11.44;100.00;101090.88;5067307;28;20037;-75
2023/01/07 06:48:08;;;;;;;4.53;2.20;;;;;;;11.42;100.00;101090.47;5068042;28;20045;-74
2023/01/07 06:50:35;;;;;;;2.60;1.73;;;;;;;11.38;100.00;101093.25;5068923;28;20048;-75
2023/01/07 06:53:01;;;;;;;4.50;2.10;;;;;;;11.34;100.00;101092.41;5068947;28;20077;-74
2023/01/07 06:55:28;;;;;;;1.98;1.73;;;;;;;11.33;100.00;101090.03;5066601;28;20044;-75
2023/01/07 06:57:54;;;;;;;5.53;2.03;;;;;;;11.35;100.00;101088.50;5066477;28;20040;-74
2023/01/07 07:00:21;;;;;;;4.05;2.00;;;;;;;11.34;100.00;101080.56;5073679;28;20040;-73
2023/01/07 07:02:47;;;;;;;1.05;0.68;;;;;;;11.27;100.00;101083.31;5076399;28;20064;-74
2023/01/07 07:05:14;;;;;;;3.67;1.95;;;;;;;11.32;100.00;101085.69;5071633;28;20482;-74
2023/01/07 07:07:41;;;;;;;3.20;1.73;;;;;;;11.34;100.00;101080.56;5072295;28;20087;-73
2023/01/07 07:10:08;;;;;;;4.70;2.00;;;;;;;11.27;100.00;101080.56;5067127;28;20056;-75
2023/01/07 07:12:35;;;;;;;5.00;1.90;;;;;;;11.39;100.00;101083.75;5070181;28;20052;-75
2023/01/07 07:15:03;;;;;;;4.63;2.15;;;;;;;11.43;100.00;101094.81;5069739;28;20139;-72
2023/01/07 07:17:29;;;;;;;3.05;1.70;;;;;;;11.39;100.00;101080.97;5067809;28;20048;-73
2023/01/07 07:19:56;;;;;;;4.22;2.10;;;;;;;11.40;100.00;101077.00;5069650;28;20045;-74
2023/01/07 07:22:22;;;;;;;2.08;0.98;;;;;;;11.40;100.00;101074.22;5073932;28;20052;-74
2023/01/07 07:24:49;;;;;;;5.85;1.60;;;;;;;11.45;100.00;101075.81;5068589;28;20049;-74
2023/01/07 07:27:15;;;;;;;4.53;1.90;;;;;;;11.55;100.00;101080.59;5068769;28;20045;-74
2023/01/07 07:29:42;;;;;;;4.13;1.48;;;;;;;11.50;100.00;101072.66;5072875;28;20059;-74
2023/01/07 07:32:08;;;;;;;2.00;1.38;;;;;;;11.54;100.00;101067.94;5086337;28;20445;-73
2023/01/07 07:34:35;;;;;;;6.70;2.45;;;;;;;11.65;100.00;101069.50;5068879;28;20406;-75
2023/01/07 07:37:01;;;;;;;4.40;1.98;;;;;;;11.64;100.00;101064.41;5071166;28;20044;-75
2023/01/07 07:39:28;;;;;;;4.05;1.73;;;;;;;11.63;100.00;101065.56;5079329;28;20078;-74
2023/01/07 07:41:54;;;;;;;3.17;1.27;;;;;;;11.63;100.00;101069.13;5077525;28;20044;-75
2023/01/07 07:44:21;;;;;;;4.28;2.42;;;;;;;11.68;100.00;101059.63;5070547;28;20051;-74
2023/01/07 07:46:47;;;;;;;5.50;2.13;;;;;;;11.72;100.00;101050.13;5069588;28;20057;-74
2023/01/07 07:49:14;;;;;;;1.88;1.13;;;;;;;11.70;100.00;101046.16;5074952;28;20139;-77
2023/01/07 07:51:40;;;;;;;3.63;1.63;;;;;;;11.75;100.00;101045.78;5070796;28;20048;-73
2023/01/07 07:54:07;;;;;;;3.38;1.80;;;;;;;11.81;100.00;101047.75;5076193;28;20044;-74
2023/01/07 07:56:33;;;;;;;3.08;1.40;;;;;;;11.84;100.00;101044.16;5072876;28;20055;-74
2023/01/07 07:59:00;;;;;;;4.15;1.88;;;;;;;11.96;100.00;101040.19;5072613;28;20043;-74
2023/01/07 08:01:26;;;;;;;2.58;1.50;;;;;;;11.92;100.00;101034.66;5073278;28;20639;-75
2023/01/07 08:03:53;;;;;;;0.38;0.38;;;;;;;11.91;100.00;101032.28;5080378;28;20548;-76
2023/01/07 08:06:19;;;;;;;2.53;1.08;;;;;;;11.92;100.00;101033.88;5076192;28;20097;-76
2023/01/07 08:08:46;;;;;;;3.17;1.70;;;;;;;12.05;100.00;101026.72;5069693;28;20052;-75
2023/01/07 08:11:12;;;;;;;1.67;1.13;;;;;;;11.97;100.00;101030.69;5075175;28;20074;-78
2023/01/07 08:13:39;;;;;;;1.40;1.15;;;;;;;12.01;100.00;101023.13;5088375;28;20053;-74
2023/01/07 08:16:05;;;;;;;1.40;0.73;;;;;;;12.00;100.00;101032.66;5070152;28;20044;-75
2023/01/07 08:18:32;;;;;;;2.50;1.50;;;;;;;12.12;100.00;101027.47;5073254;28;20048;-73
2023/01/07 08:20:58;;;;;;;2.92;1.23;;;;;;;12.10;100.00;101029.88;5068547;28;20086;-75
2023/01/07 08:23:26;;;;;;;0.88;0.70;;;;;;;12.08;100.00;101029.47;5069984;28;20044;-76
2023/01/07 08:25:57;;;;;;;3.50;1.15;;;;;;;12.18;100.00;101025.06;5069845;28;20053;-74
2023/01/07 08:28:24;;;;;;;2.00;1.08;;;;;;;12.17;100.00;101031.81;5070545;28;20582;-74
2023/01/07 08:30:50;;;;;;;3.60;1.85;;;;;;;12.22;100.00;101020.34;5071940;28;20052;-74
2023/01/07 08:33:17;;;;;;;3.97;1.80;;;;;;;12.23;100.00;101010.81;5069588;28;20049;-74
2023/01/07 08:35:44;;;;;;;5.47;1.40;;;;;;;12.22;100.00;101025.88;5069431;28;20064;-76
2023/01/07 08:38:10;;;;;;;1.98;1.25;;;;;;;12.24;100.00;101012.38;5072854;28;20056;-77
2023/01/07 08:40:37;;;;;;;3.45;1.42;;;;;;;12.18;100.00;101008.44;5073366;28;20048;-76
2023/01/07 08:43:06;;;;;;;3.70;1.80;;;;;;;12.36;100.00;101011.97;5077659;28;20529;-74
2023/01/07 08:45:33;;;;;;;2.78;2.20;;;;;;;12.37;100.00;101010.75;5082166;28;20515;-75
2023/01/07 08:47:59;;;;;;;4.75;1.83;;;;;;;12.36;100.00;101009.19;5075269;28;20857;-75
2023/01/07 08:50:28;;;;;;;0.93;0.82;;;;;;;12.31;100.00;101004.84;5081310;28;20055;-75
2023/01/07 08:52:55;;;;;;;3.83;1.42;;;;;;;12.41;100.00;100992.09;5080105;28;20101;-75
2023/01/07 08:55:22;;;;;;;2.70;1.20;;;;;;;12.41;100.00;101003.22;5069113;28;20062;-72
2023/01/07 08:57:49;;;;;;;0.40;0.40;;;;;;;12.46;100.00;101002.81;5071484;28;20426;-72
2023/01/07 09:00:17;;;;;;;4.00;1.63;;;;;;;12.52;100.00;101001.19;5070510;28;20040;-74
2023/01/07 09:02:44;;;;;;;3.03;1.52;;;;;;;12.56;100.00;100997.19;5068833;28;20055;-76
2023/01/07 09:05:11;;;;;;;1.73;1.02;;;;;;;12.50;100.00;101001.59;5075361;28;20058;-76
2023/01/07 09:07:38;;;;;;;3.17;1.25;;;;;;;12.56;100.00;101005.50;5067479;28;20049;-75
2023/01/07 09:10:05;;;;;;;1.80;1.20;;;;;;;12.57;100.00;101007.13;5070221;28;20060;-74
2023/01/07 09:12:32;;;;;;;1.70;0.88;;;;;;;12.57;100.00;101003.53;5078438;28;20051;-77
2023/01/07 09:14:58;;;;;;;2.30;1.00;;;;;;;12.55;100.00;101006.72;5068625;28;20078;-74
2023/01/07 09:17:25;;;;;;;1.55;1.00;;;;;;;12.60;100.00;101008.28;5080239;28;20044;-74
2023/01/07 09:19:51;;;;;;;2.58;1.27;;;;;;;12.66;100.00;101001.91;5068260;28;20045;-75
2023/01/07 09:22:18;;;;;;;1.25;1.15;;;;;;;12.67;100.00;100995.16;5076377;28;20053;-76
2023/01/07 09:24:45;;;;;;;1.73;1.20;;;;;;;12.63;100.00;100999.16;5068696;28;20045;-74
2023/01/07 09:27:15;;;;;;;2.30;0.73;;;;;;;12.52;100.00;100985.31;5074585;28;20049;-74
2023/01/07 09:29:42;;;;;;;2.95;1.38;;;;;;;12.60;100.00;100981.34;5068757;28;20078;-74
2023/01/07 09:32:09;;;;;;;1.60;1.20;;;;;;;12.59;100.00;100979.72;5067108;28;20048;-75
2023/01/07 09:34:37;;;;;;;1.65;1.05;;;;;;;12.56;100.00;100979.75;5065339;28;20056;-74
2023/01/07 09:37:04;;;;;;;1.80;1.02;;;;;;;12.62;100.00;100978.91;5084502;28;20059;-76
2023/01/07 09:39:31;;;;;;;3.88;1.50;;;;;;;12.58;100.00;100980.13;5066996;28;20054;-74
2023/01/07 09:42:18;;;;;;;1.42;1.05;;;;;;;12.56;100.00;100977.00;5065362;28;20167;-76
2023/01/07 09:45:12;;;;;;;1.02;0.80;;;;;;;12.61;100.00;100976.56;5068172;28;20060;-75
2023/01/07 09:47:44;;;;;;;2.20;1.30;;;;;;;12.62;100.00;100980.91;5078179;28;20048;-75
2023/01/07 09:50:38;;;;;;;4.35;1.17;;;;;;;12.57;100.00;100984.09;5067467;28;20537;-74
2023/01/07 09:53:15;;;;;;;0.90;0.73;;;;;;;12.61;100.00;100979.31;5072724;28;20044;-74
2023/01/07 09:55:42;;;;;;;2.72;1.10;;;;;;;12.62;100.00;100975.34;5067368;28;20059;-74
2023/01/07 09:58:29;;;;;;;2.70;1.30;;;;;;;12.71;100.00;100972.94;5070004;28;20056;-74
2023/01/07 10:01:33;;;;;;;6.25;1.90;;;;;;;12.56;100.00;100968.66;5070805;28;20486;-73
2023/01/07 10:04:40;;;;;;;5.65;1.33;;;;;;;12.65;100.00;100963.44;5062907;28;20044;-75
2023/01/07 10:07:21;;;;;;;1.23;0.80;;;;;;;12.62;100.00;100958.69;5067704;28;20414;-75
2023/01/07 10:09:59;;;;;;;1.88;0.90;;;;;;;12.61;100.00;100960.69;5070048;28;20060;-75
2023/01/07 10:12:42;;;;;;;1.83;1.27;;;;;;;12.60;100.00;100958.31;5069563;28;20402;-75
2023/01/07 10:15:24;;;;;;;3.83;1.60;;;;;;;12.59;100.00;100970.63;5083723;28;20052;-75
2023/01/07 10:18:11;;;;;;;1.90;1.08;;;;;;;12.64;100.00;100950.75;5065645;28;20044;-73
2023/01/07 10:20:43;;;;;;;3.28;1.48;;;;;;;12.65;100.00;100953.13;5068086;28;20078;-73
2023/01/07 10:23:14;;;;;;;0.70;0.70;;;;;;;12.60;100.00;100941.66;5068812;28;20510;-75
2023/01/07 10:25:49;;;;;;;3.30;1.48;;;;;;;12.71;100.00;100948.75;5066922;28;20048;-74
2023/01/07 10:28:38;;;;;;;0.90;0.65;;;;;;;12.67;100.00;100947.19;5067741;28;20593;-73
2023/01/07 10:31:14;;;;;;;3.50;1.38;;;;;;;12.78;100.00;100936.78;5067106;28;20043;-75
2023/01/07 10:33:40;;;;;;;;;;;;;;;12.67;100.00;100938.84;5074020;28;20048;-74
2023/01/07 10:36:33;;;;;;;1.60;0.95;;;;;;;12.80;100.00;100939.97;5076247;28;19921;-75
2023/01/07 10:39:07;;;;;;;3.72;1.58;;;;;;;12.79;100.00;100930.81;5066078;28;20079;-74
2023/01/07 10:42:16;;;;;;;3.42;1.33;;;;;;;12.87;100.00;100928.81;5066307;28;20086;-75
2023/01/07 10:45:05;;;;;;;1.98;1.08;;;;;;;12.90;100.00;100925.22;5066853;28;20131;-74
2023/01/07 10:47:31;;;;;;;3.33;1.40;;;;;;;13.13;100.00;100913.56;5068352;28;20044;-74
2023/01/07 10:50:26;;;;;;;3.00;1.58;;;;;;;13.42;100.00;100900.97;5069540;28;20106;-72
2023/01/07 10:53:17;;;;;;;4.97;1.58;;;;;;;13.67;100.00;100882.06;5065456;28;20052;-73
2023/01/07 10:56:19;;;;;;;0.73;0.73;;;;;;;13.92;100.00;100883.34;5074743;28;20044;-76
2023/01/07 10:58:48;;;;;;;4.07;1.67;;;;;;;14.42;100.00;100869.59;5077004;28;20556;-73
2023/01/07 11:01:27;;;;;;;2.15;1.10;;;;;;;14.98;100.00;100860.34;5075495;28;20044;-74
2023/01/07 11:03:56;;;;;;;2.97;1.42;;;;;;;16.09;100.00;100855.84;5079027;28;20519;-73
2023/01/07 11:06:35;;;;;;;3.15;1.58;;;;;;;16.57;97.20;100848.41;5078022;28;20055;-75
2023/01/07 11:09:05;;;;;;;6.55;1.65;;;;;;;17.49;96.70;100842.06;5072535;28;20071;-73
2023/01/07 11:11:32;;;;;;;2.95;1.85;;;;;;;18.16;89.58;100831.75;5074924;28;20039;-75
2023/01/07 11:14:08;;;;;;;4.22;1.75;;;;;;;19.36;77.75;100839.88;5071373;28;20458;-73
2023/01/07 11:16:42;;;;;;;4.10;1.70;;;;;;;19.06;67.28;100823.66;5089359;28;20050;-75
2023/01/07 11:19:11;;;;;;;4.38;1.80;;;;;;;19.26;65.79;100824.97;5071798;28;20791;-74
2023/01/07 11:21:43;;;;;;;3.63;1.75;;;;;;;18.93;69.70;100815.28;5071588;28;20086;-75
2023/01/07 11:24:25;;;;;;;8.43;1.48;;;;;;;18.30;67.46;100806.13;5077923;28;20088;-74
2023/01/07 11:27:02;;;;;;;1.08;0.88;;;;;;;16.86;74.33;100798.22;5072660;28;20667;-74
2023/01/07 11:29:41;;;;;;;3.90;1.33;;;;;;;16.26;78.96;100816.38;5076309;28;20048;-74
2023/01/07 11:32:20;;;;;;;3.08;1.05;;;;;;;16.39;85.06;100788.56;5070440;28;20074;-74
2023/01/07 11:35:17;;;;;;;4.13;1.70;;;;;;;16.00;85.29;100792.25;5071821;28;20058;-74
2023/01/07 11:37:48;;;;;;;2.33;1.30;;;;;;;15.75;88.18;100783.63;5070901;28;20139;-76